Time;durP1;ratioP1;P1;durP2;ratioP2;P2;SDS_P1;SDS_P2;PMS_P1;PMS_P2;Temp;Humidity;BMP_temperature;BMP_pressure;BME280_temperature;BME280_humidity;BME280_pressure;Samples;Min_cycle;Max_cycle;Signal;HPM_P1;HPM_P2
2021/09/30 00:00:07;;;;;;;19.00;11.30;;;;;;;15.51;100.00;100851.06;5136485;27;20047;-80
2021/09/30 00:02:35;;;;;;;15.60;9.55;;;;;;;15.47;100.00;100847.75;5136790;27;20056;-78
2021/09/30 00:05:07;;;;;;;15.30;9.95;;;;;;;15.46;100.00;100852.25;5136198;27;20043;-78
2021/09/30 00:07:36;;;;;;;17.23;9.50;;;;;;;15.49;100.00;100847.63;5136502;27;20043;-78
2021/09/30 00:10:05;;;;;;;14.38;9.88;;;;;;;15.46;100.00;100852.25;5136329;27;20043;-78
2021/09/30 00:12:37;;;;;;;15.13;9.25;;;;;;;15.50;100.00;100852.88;5136576;27;20115;-82
2021/09/30 00:15:09;;;;;;;15.07;8.85;;;;;;;15.46;100.00;100852.25;5136162;27;20523;-81
2021/09/30 00:34:21;;;;;;;14.50;8.25;;;;;;;15.27;100.00;100854.53;5135641;27;20039;-77
2021/09/30 00:45:23;;;;;;;11.52;7.50;;;;;;;15.21;100.00;100860.31;5135515;27;20467;-78
2021/09/30 00:45:41;;;;;;;12.90;8.00;;;;;;;15.24;100.00;100852.03;5135384;27;20088;-78
2021/09/30 00:48:21;;;;;;;13.32;8.45;;;;;;;15.20;100.00;100855.91;5135457;27;20043;-78
2021/09/30 00:51:01;;;;;;;13.23;8.15;;;;;;;15.15;100.00;100847.28;5135726;27;20054;-78
2021/09/30 00:53:47;;;;;;;12.82;8.43;;;;;;;15.12;100.00;100855.59;5135472;27;20399;-79
2021/09/30 01:19:48;;;;;;;11.13;7.35;;;;;;;14.75;100.00;100870.66;5106768;27;20126;-79
2021/09/30 02:19:03;;;;;;;13.60;8.90;;;;;;;13.90;100.00;100925.47;5133675;27;20545;-80
2021/09/30 02:24:46;;;;;;;14.18;9.18;;;;;;;13.85;100.00;100922.19;5124499;27;20070;-77
2021/09/30 02:30:10;;;;;;;16.73;10.77;;;;;;;13.79;100.00;100918.06;5124961;27;20062;-77
2021/09/30 03:00:50;;;;;;;14.52;9.80;;;;;;;13.56;100.00;100926.69;5070493;28;20052;-80
2021/09/30 03:03:21;;;;;;;15.18;10.80;;;;;;;13.59;100.00;100932.72;5070281;28;20056;-80
2021/09/30 03:05:53;;;;;;;16.20;10.43;;;;;;;13.56;100.00;100937.41;5091128;28;20055;-81
2021/09/30 03:08:26;;;;;;;15.52;10.48;;;;;;;13.59;100.00;100938.06;5134548;27;20119;-80
2021/09/30 03:10:55;;;;;;;17.35;10.48;;;;;;;13.51;100.00;100945.75;5137488;27;20042;-79
2021/09/30 03:13:25;;;;;;;18.00;11.45;;;;;;;13.44;100.00;100944.38;5137036;27;20426;-80
2021/09/30 03:15:58;;;;;;;19.02;11.88;;;;;;;13.42;100.00;100940.94;5137700;27;20067;-83
2021/09/30 03:18:38;;;;;;;22.08;11.57;;;;;;;13.45;100.00;100938.06;5137194;27;20127;-82
2021/09/30 03:24:03;;;;;;;19.60;11.98;;;;;;;13.45;100.00;100943.44;5100635;27;20404;-81
2021/09/30 03:26:32;;;;;;;17.33;11.50;;;;;;;13.41;100.00;100942.78;5136743;27;20051;-80
2021/09/30 03:29:02;;;;;;;19.73;11.45;;;;;;;13.46;100.00;100939.78;5137410;27;20391;-81
2021/09/30 03:31:32;;;;;;;17.90;11.18;;;;;;;13.53;100.00;100949.19;5136930;27;20074;-81
2021/09/30 03:34:04;;;;;;;17.42;11.50;;;;;;;13.44;100.00;100933.66;5137391;27;20046;-80
2021/09/30 03:36:33;;;;;;;19.83;11.43;;;;;;;13.48;100.00;100940.56;5136914;27;20043;-81
2021/09/30 03:39:03;;;;;;;20.27;12.38;;;;;;;13.44;100.00;100944.38;5137154;27;20047;-80
2021/09/30 03:41:32;;;;;;;20.20;12.07;;;;;;;13.41;100.00;100942.78;5136727;27;20043;-78
2021/09/30 03:44:00;;;;;;;19.98;12.90;;;;;;;13.43;100.00;100948.03;5137247;27;20498;-79
2021/09/30 03:46:32;;;;;;;18.95;12.05;;;;;;;13.43;100.00;100948.03;5136582;27;20081;-79
2021/09/30 03:49:07;;;;;;;19.63;12.27;;;;;;;13.43;100.00;100948.03;5137015;27;20121;-79
2021/09/30 03:51:48;;;;;;;20.55;11.85;;;;;;;13.47;100.00;100944.19;5136727;27;20070;-78
2021/09/30 03:54:25;;;;;;;20.08;12.18;;;;;;;13.47;100.00;100944.19;5136280;27;20050;-83
2021/09/30 03:57:03;;;;;;;21.45;12.77;;;;;;;13.48;100.00;100956.63;5136784;27;20103;-84
2021/09/30 03:59:32;;;;;;;21.17;12.10;;;;;;;13.52;100.00;100947.47;5135622;27;20403;-80
2021/09/30 04:02:01;;;;;;;21.67;12.93;;;;;;;13.53;100.00;100946.50;5136741;27;20484;-80
2021/09/30 04:04:31;;;;;;;17.08;11.57;;;;;;;13.56;100.00;100950.81;5136217;27;20047;-80
2021/09/30 04:07:03;;;;;;;18.10;12.70;;;;;;;13.53;100.00;100946.50;5136402;27;20066;-80
2021/09/30 04:09:34;;;;;;;19.63;13.25;;;;;;;13.54;100.00;100948.22;5136356;27;20050;-80
2021/09/30 04:12:04;;;;;;;17.75;12.00;;;;;;;13.63;100.00;100953.03;5136638;27;20118;-84
2021/09/30 04:14:33;;;;;;;20.63;12.85;;;;;;;13.58;100.00;100952.44;5136299;27;20176;-82
2021/09/30 04:17:01;;;;;;;19.13;12.68;;;;;;;13.60;100.00;100950.50;5170158;27;20100;-84
2021/09/30 04:19:29;;;;;;;19.35;13.40;;;;;;;13.56;100.00;100946.31;5135469;27;20070;-78
2021/09/30 04:21:58;;;;;;;20.70;13.77;;;;;;;13.52;100.00;100955.50;5136205;27;20100;-76
2021/09/30 04:24:27;;;;;;;21.10;13.57;;;;;;;13.46;100.00;100947.84;5135997;27;20069;-79
2021/09/30 04:26:57;;;;;;;23.02;13.65;;;;;;;13.50;100.00;100953.84;5136295;27;20055;-77
2021/09/30 04:29:25;;;;;;;18.73;12.93;;;;;;;13.58;100.00;100949.75;5135750;27;20046;-78
2021/09/30 04:31:54;;;;;;;18.98;13.48;;;;;;;13.59;100.00;100954.16;5135923;27;20090;-78
2021/09/30 04:34:22;;;;;;;19.88;13.43;;;;;;;13.53;100.00;100954.56;5135380;27;20386;-79
2021/09/30 04:36:50;;;;;;;21.17;13.63;;;;;;;13.48;100.00;100956.63;5136071;27;20433;-78
2021/09/30 04:39:19;;;;;;;20.70;13.88;;;;;;;13.42;100.00;100955.22;5135619;27;20041;-77
2021/09/30 04:41:47;;;;;;;19.48;13.70;;;;;;;13.43;100.00;100964.09;5135960;27;20039;-77
2021/09/30 04:44:18;;;;;;;23.70;14.45;;;;;;;13.45;100.00;100959.50;5135779;27;20075;-77
2021/09/30 04:46:46;;;;;;;20.50;13.82;;;;;;;13.51;100.00;100963.63;5135632;27;20051;-76
2021/09/30 04:49:15;;;;;;;22.48;14.20;;;;;;;13.45;100.00;100962.19;5135468;27;20043;-78
2021/09/30 04:51:44;;;;;;;18.42;14.10;;;;;;;13.42;100.00;100973.09;5136042;27;20047;-76
2021/09/30 04:54:12;;;;;;;19.73;14.38;;;;;;;13.38;100.00;100971.53;5134337;27;20059;-75
2021/09/30 04:56:40;;;;;;;23.77;15.65;;;;;;;13.34;100.00;100980.75;5135083;27;20043;-74
2021/09/30 04:59:08;;;;;;;21.90;14.93;;;;;;;13.39;100.00;100973.28;5135088;27;20049;-74
2021/09/30 05:01:38;;;;;;;22.13;15.80;;;;;;;13.42;100.00;100983.81;5135173;27;20043;-75
2021/09/30 05:04:06;;;;;;;21.90;15.45;;;;;;;13.35;100.00;100983.31;5135478;27;20122;-74
2021/09/30 05:06:34;;;;;;;22.63;16.00;;;;;;;13.39;100.00;100984.00;5134979;27;20496;-74
2021/09/30 05:09:03;;;;;;;23.35;16.02;;;;;;;13.34;100.00;100983.41;5135059;27;20097;-75
2021/09/30 05:11:35;;;;;;;27.27;17.80;;;;;;;13.31;100.00;100983.59;5134674;27;20062;-75
2021/09/30 05:14:04;;;;;;;26.63;18.08;;;;;;;13.31;100.00;100996.97;5134909;27;20050;-76
2021/09/30 05:16:33;;;;;;;22.38;15.30;;;;;;;13.37;100.00;101001.97;5134769;27;20050;-73
2021/09/30 05:19:05;;;;;;;21.08;15.25;;;;;;;13.28;100.00;101008.75;5135216;27;20074;-75
2021/09/30 05:21:33;;;;;;;24.40;16.38;;;;;;;13.29;100.00;100998.88;5134568;27;20035;-73
2021/09/30 05:24:02;;;;;;;23.92;15.32;;;;;;;13.34;100.00;101003.03;5134591;27;20039;-70
2021/09/30 05:26:30;;;;;;;24.05;15.52;;;;;;;13.26;100.00;101001.75;5134634;27;20475;-72
2021/09/30 05:29:00;;;;;;;23.10;15.95;;;;;;;13.30;100.00;101009.50;5134615;27;20043;-72
2021/09/30 05:31:29;;;;;;;26.55;17.25;;;;;;;13.25;100.00;101008.94;5133864;27;20036;-71
2021/09/30 05:33:57;;;;;;;21.95;15.60;;;;;;;13.27;100.00;101012.38;5134571;27;20050;-72
2021/09/30 05:36:27;;;;;;;26.35;17.35;;;;;;;13.19;100.00;101017.31;5136433;27;20039;-71
2021/09/30 05:38:55;;;;;;;24.95;16.77;;;;;;;13.17;100.00;101014.72;5134510;27;20533;-69
2021/09/30 05:41:25;;;;;;;24.08;16.25;;;;;;;13.18;100.00;101016.44;5134382;27;20541;-70
2021/09/30 05:43:56;;;;;;;24.55;17.30;;;;;;;13.16;100.00;101013.00;5134575;27;20043;-71
2021/09/30 05:46:35;;;;;;;22.45;15.80;;;;;;;13.21;100.00;101026.13;5134133;27;20126;-71
2021/09/30 05:49:04;;;;;;;27.75;17.27;;;;;;;13.20;100.00;101027.09;5133722;27;20043;-70
2021/09/30 05:51:34;;;;;;;26.63;18.02;;;;;;;13.24;100.00;101027.78;5133504;27;20104;-72
2021/09/30 05:54:02;;;;;;;23.55;16.40;;;;;;;13.28;100.00;101029.31;5134198;27;20039;-70
2021/09/30 05:56:31;;;;;;;26.33;18.30;;;;;;;13.30;100.00;101028.25;5134034;27;20039;-69
2021/09/30 05:58:59;;;;;;;28.67;17.13;;;;;;;13.31;100.00;101035.34;5134395;27;20043;-70
2021/09/30 06:12:38;;;;;;;27.20;18.10;;;;;;;13.33;100.00;101049.53;5109592;27;20408;-72
2021/09/30 06:15:13;;;;;;;27.85;18.73;;;;;;;13.34;100.00;101053.94;5133969;27;20039;-71
2021/09/30 06:17:44;;;;;;;29.52;19.75;;;;;;;13.35;100.00;101058.34;5133715;27;20061;-71
2021/09/30 06:20:13;;;;;;;28.77;19.83;;;;;;;13.39;100.00;101053.66;5133723;27;20043;-71
2021/09/30 06:22:47;;;;;;;27.73;18.95;;;;;;;13.34;100.00;101055.75;5133571;27;20104;-70
2021/09/30 06:25:16;;;;;;;28.95;19.20;;;;;;;13.34;100.00;101055.75;5133361;27;20488;-70
2021/09/30 06:27:44;;;;;;;29.23;19.75;;;;;;;13.39;100.00;101064.38;5133272;27;20039;-71
2021/09/30 06:30:14;;;;;;;26.55;19.48;;;;;;;13.39;100.00;101064.38;5133436;27;20055;-71
2021/09/30 06:32:42;;;;;;;33.30;21.05;;;;;;;13.49;100.00;101065.56;5133603;28;20365;-71
2021/09/30 06:35:12;;;;;;;33.33;21.48;;;;;;;13.44;100.00;101065.84;5133654;28;20043;-72
2021/09/30 06:37:40;;;;;;;32.00;21.73;;;;;;;13.41;100.00;101067.81;5133426;28;20428;-72
2021/09/30 06:40:10;;;;;;;32.92;22.55;;;;;;;13.44;100.00;101068.53;5133878;27;20047;-71
2021/09/30 06:42:39;;;;;;;35.40;22.30;;;;;;;13.43;100.00;101068.63;5135429;27;20075;-71
2021/09/30 06:45:08;;;;;;;32.15;22.02;;;;;;;13.41;100.00;101079.44;5137921;27;20075;-71
2021/09/30 06:47:37;;;;;;;35.58;23.48;;;;;;;13.43;100.00;101076.66;5137684;27;20465;-70
2021/09/30 06:50:14;;;;;;;35.65;23.35;;;;;;;13.42;100.00;101080.28;5138136;27;20039;-70
2021/09/30 06:52:43;;;;;;;33.58;23.65;;;;;;;13.39;100.00;101083.13;5136461;27;20442;-70
2021/09/30 06:55:14;;;;;;;38.92;24.67;;;;;;;13.42;100.00;101077.63;5137833;27;20473;-70
2021/09/30 06:57:43;;;;;;;37.47;24.35;;;;;;;13.37;100.00;101082.38;5137559;27;20043;-70
2021/09/30 07:00:12;;;;;;;36.78;24.27;;;;;;;13.50;100.00;101088.72;5137549;27;20036;-70
2021/09/30 07:02:42;;;;;;;39.92;26.42;;;;;;;13.41;100.00;101084.78;5137410;27;20046;-70
2021/09/30 07:05:12;;;;;;;36.10;24.20;;;;;;;13.41;100.00;101090.16;5137306;27;20141;-70
2021/09/30 07:07:41;;;;;;;37.70;24.83;;;;;;;13.39;100.00;101091.19;5136356;27;20147;-70
2021/09/30 07:10:10;;;;;;;38.35;25.10;;;;;;;13.44;100.00;101094.47;5137192;27;20498;-69
2021/09/30 07:12:41;;;;;;;38.03;25.10;;;;;;;13.50;100.00;101094.09;5136885;27;20051;-69
2021/09/30 07:15:10;;;;;;;35.95;25.27;;;;;;;13.52;100.00;101100.25;5137108;27;20127;-69
2021/09/30 07:17:40;;;;;;;41.05;25.70;;;;;;;13.57;100.00;101098.13;5136629;27;20050;-69
2021/09/30 07:20:09;;;;;;;40.38;25.05;;;;;;;13.63;100.00;101107.66;5136866;27;20043;-69
2021/09/30 07:22:37;;;;;;;40.17;25.55;;;;;;;13.66;100.00;101105.63;5135982;27;20039;-69
2021/09/30 07:25:07;;;;;;;42.75;26.02;;;;;;;13.69;100.00;101109.94;5134574;27;20055;-69
2021/09/30 07:27:36;;;;;;;41.55;24.05;;;;;;;13.81;100.00;101113.72;5135869;27;20074;-69
2021/09/30 07:30:07;;;;;;;38.03;24.73;;;;;;;13.85;100.00;101113.44;5136278;27;20039;-68
2021/09/30 07:32:35;;;;;;;36.78;24.08;;;;;;;13.83;100.00;101115.34;5136381;27;20035;-68
2021/09/30 07:35:04;;;;;;;40.10;25.15;;;;;;;13.81;100.00;101116.41;5136585;27;20047;-69
2021/09/30 07:37:32;;;;;;;39.83;24.90;;;;;;;13.86;100.00;101125.03;5136705;27;20046;-69
2021/09/30 07:40:01;;;;;;;39.30;24.92;;;;;;;13.94;100.00;101120.06;5136794;27;20051;-69
2021/09/30 07:42:29;;;;;;;36.80;23.75;;;;;;;14.01;100.00;101127.66;5136406;27;20077;-70
2021/09/30 07:44:57;;;;;;;38.28;24.90;;;;;;;13.99;100.00;101131.38;5136736;27;20043;-70
2021/09/30 07:47:27;;;;;;;40.95;25.35;;;;;;;14.04;100.00;101132.81;5136516;27;20047;-68
2021/09/30 07:49:56;;;;;;;36.78;24.90;;;;;;;14.07;100.00;101139.81;5135589;27;20082;-68
2021/09/30 07:52:24;;;;;;;40.35;26.55;;;;;;;14.12;100.00;101140.41;5136474;27;20112;-68
2021/09/30 07:54:52;;;;;;;38.88;26.48;;;;;;;14.16;100.00;101136.56;5135671;27;20043;-70
2021/09/30 07:57:21;;;;;;;41.17;26.48;;;;;;;14.19;100.00;101147.16;5136693;27;20047;-70
2021/09/30 07:59:49;;;;;;;39.95;26.73;;;;;;;14.20;100.00;101145.31;5136196;27;20392;-70
2021/09/30 08:02:17;;;;;;;36.90;24.52;;;;;;;14.29;100.00;101139.41;5136292;27;20078;-70
2021/09/30 08:04:47;;;;;;;36.88;25.58;;;;;;;14.28;100.00;101145.69;5136087;27;20039;-70
2021/09/30 08:07:15;;;;;;;39.17;25.50;;;;;;;14.25;100.00;101152.13;5136361;27;20066;-70
2021/09/30 08:09:44;;;;;;;44.67;25.58;;;;;;;14.28;100.00;101146.59;5136110;27;20050;-70
2021/09/30 08:12:12;;;;;;;38.97;25.13;;;;;;;14.31;100.00;101149.06;5136295;27;20066;-70
2021/09/30 08:14:40;;;;;;;38.90;25.00;;;;;;;14.31;100.00;101143.69;5135815;27;20049;-70
2021/09/30 08:17:08;;;;;;;36.72;25.02;;;;;;;14.31;100.00;101151.75;5135995;27;20054;-70
2021/09/30 08:19:39;;;;;;;34.95;23.92;;;;;;;14.41;100.00;101141.31;5136088;27;20047;-70
2021/09/30 08:22:12;;;;;;;31.88;23.38;;;;;;;14.53;100.00;101145.09;5136278;27;20100;-70
2021/09/30 08:24:40;;;;;;;32.17;21.67;;;;;;;14.70;100.00;101155.63;5135936;27;20043;-70
2021/09/30 08:27:09;;;;;;;30.70;20.73;;;;;;;14.75;100.00;101150.81;5135530;27;20062;-70
2021/09/30 08:29:38;;;;;;;23.63;16.77;;;;;;;14.87;100.00;101155.44;5135762;27;20045;-70
2021/09/30 08:32:07;;;;;;;23.80;16.70;;;;;;;15.00;100.00;101155.50;5135057;27;20054;-70
2021/09/30 08:34:38;;;;;;;19.92;14.52;;;;;;;15.07;100.00;101153.28;5135774;27;20456;-70
2021/09/30 08:37:07;;;;;;;20.70;13.02;;;;;;;15.18;100.00;101157.00;5135948;27;20125;-70
2021/09/30 08:39:37;;;;;;;18.05;12.35;;;;;;;15.23;100.00;101156.69;5135257;27;20084;-70
2021/09/30 08:42:08;;;;;;;16.15;12.80;;;;;;;15.23;100.00;101156.69;5135390;27;20042;-70
2021/09/30 08:44:36;;;;;;;14.75;11.60;;;;;;;15.23;100.00;101172.81;5134823;27;20040;-70
2021/09/30 08:47:06;;;;;;;13.65;9.35;;;;;;;15.12;100.00;101169.97;5134769;27;20047;-70
2021/09/30 08:49:35;;;;;;;15.82;11.35;;;;;;;15.07;100.00;101161.34;5134406;27;20046;-70
2021/09/30 08:52:03;;;;;;;14.82;10.07;;;;;;;15.11;100.00;101162.88;5134246;27;20035;-70
2021/09/30 08:54:31;;;;;;;12.13;8.60;;;;;;;15.20;100.00;101156.91;5133855;27;20043;-77
2021/09/30 08:57:03;;;;;;;15.73;11.75;;;;;;;15.30;100.00;101168.78;5134519;27;20167;-69
2021/09/30 08:59:31;;;;;;;14.60;10.88;;;;;;;15.33;100.00;101170.38;5134922;27;20039;-69
2021/09/30 09:02:08;;;;;;;12.23;8.88;;;;;;;15.36;100.00;101170.22;5133319;27;20047;-70
2021/09/30 09:04:52;;;;;;;15.65;10.88;;;;;;;15.51;100.00;101168.31;5134438;27;20035;-70
2021/09/30 09:07:24;;;;;;;12.02;8.75;;;;;;;15.52;100.00;101164.66;5134319;27;20092;-70
2021/09/30 09:09:53;;;;;;;13.40;10.00;;;;;;;15.70;100.00;101164.34;5134930;27;20062;-70
2021/09/30 09:12:23;;;;;;;12.43;9.50;;;;;;;15.68;100.00;101165.41;5134846;27;20035;-70
2021/09/30 09:14:51;;;;;;;12.50;9.43;;;;;;;15.68;100.00;101171.66;5134578;27;20047;-70
2021/09/30 09:17:20;;;;;;;13.35;8.45;;;;;;;15.50;100.00;101169.28;5134604;27;20520;-70
2021/09/30 09:19:52;;;;;;;11.40;8.43;;;;;;;15.49;100.00;101181.00;5134373;27;20043;-70
2021/09/30 09:22:23;;;;;;;13.50;9.63;;;;;;;15.54;100.00;101173.47;5134805;27;20062;-70
2021/09/30 09:24:56;;;;;;;9.93;7.50;;;;;;;15.49;100.00;101183.69;5134522;27;20039;-70
2021/09/30 09:27:43;;;;;;;10.52;7.80;;;;;;;15.49;100.00;101167.56;5133518;27;20093;-70
2021/09/30 09:30:25;;;;;;;12.02;8.93;;;;;;;15.49;100.00;101171.13;5133559;27;20123;-70
2021/09/30 09:33:01;;;;;;;13.05;9.45;;;;;;;15.65;100.00;101173.69;5134560;27;20035;-70
2021/09/30 09:35:29;;;;;;;13.27;9.23;;;;;;;15.78;100.00;101179.97;5134716;27;20049;-70
2021/09/30 09:38:02;;;;;;;11.27;8.00;;;;;;;15.71;100.00;101174.13;5134630;27;20051;-70
2021/09/30 09:40:30;;;;;;;15.10;9.23;;;;;;;15.73;100.00;101176.72;5134537;27;20049;-70
2021/09/30 09:43:02;;;;;;;11.77;8.77;;;;;;;15.69;100.00;101164.44;5134475;27;20108;-70
2021/09/30 09:45:30;;;;;;;8.48;6.13;;;;;;;15.49;100.00;101181.00;5134452;27;20108;-70
2021/09/30 09:47:58;;;;;;;11.80;7.85;;;;;;;15.43;100.00;101175.06;5134170;27;20047;-70
2021/09/30 09:50:27;;;;;;;10.90;7.35;;;;;;;15.40;100.00;101186.03;5134322;27;20071;-70
2021/09/30 09:52:58;;;;;;;9.75;7.15;;;;;;;15.52;100.00;101178.97;5133874;27;20043;-70
2021/09/30 09:55:30;;;;;;;9.77;7.35;;;;;;;15.44;100.00;101176.81;5134293;27;20047;-70
2021/09/30 09:58:04;;;;;;;8.90;6.80;;;;;;;15.53;100.00;101180.69;5133893;27;20348;-70
2021/09/30 10:00:33;;;;;;;9.32;6.35;;;;;;;15.43;100.00;101184.94;5134487;27;20130;-70
2021/09/30 10:03:13;;;;;;;10.30;5.60;;;;;;;15.28;100.00;101189.50;5134017;27;20050;-70
2021/09/30 10:05:42;;;;;;;9.15;6.45;;;;;;;15.39;100.00;101195.06;5133657;27;20096;-70
2021/09/30 10:08:11;;;;;;;10.60;6.45;;;;;;;15.39;100.00;101197.75;5134062;27;20035;-70
2021/09/30 10:10:40;;;;;;;8.68;5.82;;;;;;;15.27;100.00;101200.38;5132575;27;20051;-70
2021/09/30 10:13:10;;;;;;;7.18;4.93;;;;;;;15.29;100.00;101199.31;5134004;27;20063;-70
2021/09/30 10:15:39;;;;;;;5.78;4.53;;;;;;;15.12;100.00;101204.88;5133618;27;20407;-70
2021/09/30 10:18:10;;;;;;;7.90;4.97;;;;;;;15.23;100.00;101205.06;5133338;27;20142;-70
2021/09/30 10:20:40;;;;;;;8.50;4.82;;;;;;;15.13;100.00;101209.31;5133484;27;20042;-71
2021/09/30 10:23:11;;;;;;;7.78;5.38;;;;;;;15.24;100.00;101206.78;5133225;27;20046;-70
2021/09/30 10:25:43;;;;;;;9.32;4.65;;;;;;;15.20;100.00;101204.41;5132209;27;20126;-71
2021/09/30 10:28:16;;;;;;;7.90;4.60;;;;;;;15.22;100.00;101207.84;5132421;27;20107;-70
2021/09/30 10:30:46;;;;;;;8.00;4.82;;;;;;;15.16;100.00;101211.81;5132960;27;20069;-70
2021/09/30 10:33:16;;;;;;;6.75;4.50;;;;;;;15.17;100.00;101211.72;5133411;27;20518;-70
2021/09/30 10:35:46;;;;;;;7.97;4.43;;;;;;;15.14;100.00;101208.34;5133009;28;20126;-70
2021/09/30 10:38:25;;;;;;;8.52;5.00;;;;;;;15.08;100.00;101211.44;5133454;28;20043;-70
2021/09/30 10:41:13;;;;;;;8.88;5.30;;;;;;;15.09;100.00;101210.47;5132061;27;20075;-68
2021/09/30 10:43:44;;;;;;;7.22;5.15;;;;;;;15.10;100.00;101220.25;5131835;28;20043;-71
2021/09/30 10:46:48;;;;;;;7.47;4.85;;;;;;;15.05;100.00;101216.97;5133513;27;20044;-70
2021/09/30 10:49:44;;;;;;;6.93;4.50;;;;;;;15.02;100.00;101227.94;5133040;27;20064;-70
2021/09/30 10:52:18;;;;;;;8.38;4.80;;;;;;;15.03;100.00;101218.91;5133808;28;20122;-70
2021/09/30 10:54:52;;;;;;;7.85;4.85;;;;;;;15.07;100.00;101215.09;5133045;27;20043;-70
2021/09/30 10:57:43;;;;;;;7.05;4.70;;;;;;;15.06;100.00;101224.97;5133652;28;20042;-68
2021/09/30 11:01:00;;;;;;;8.48;4.97;;;;;;;15.07;100.00;101220.47;5133795;28;20043;-69
2021/09/30 11:03:29;;;;;;;8.38;5.13;;;;;;;15.06;100.00;101210.69;5086724;27;20390;-69
2021/09/30 11:06:25;;;;;;;11.07;5.25;;;;;;;15.10;100.00;101212.19;5133168;27;20043;-70
2021/09/30 11:09:15;;;;;;;8.98;5.30;;;;;;;15.25;100.00;101211.22;5133338;28;20039;-70
2021/09/30 11:11:49;;;;;;;8.07;5.35;;;;;;;15.23;100.00;101207.75;5133425;27;20043;-70
2021/09/30 11:14:23;;;;;;;10.20;6.10;;;;;;;15.26;100.00;101212.09;5133251;27;20046;-70
2021/09/30 11:16:55;;;;;;;9.23;5.70;;;;;;;15.26;100.00;101207.56;5133152;28;20043;-70
2021/09/30 11:19:46;;;;;;;13.40;5.82;;;;;;;15.33;100.00;101200.81;5133336;27;20122;-70
2021/09/30 11:22:14;;;;;;;7.38;5.30;;;;;;;15.37;100.00;101201.50;5133465;27;20137;-70
2021/09/30 11:24:51;;;;;;;7.57;5.10;;;;;;;15.31;100.00;101208.13;5132727;28;20039;-70
2021/09/30 11:27:29;;;;;;;7.00;5.45;;;;;;;15.42;100.00;101208.28;5133190;28;20051;-69
2021/09/30 11:30:18;;;;;;;8.75;5.45;;;;;;;15.50;100.00;101196.16;5135300;27;20050;-70
2021/09/30 11:32:48;;;;;;;7.35;5.00;;;;;;;15.27;100.00;101208.44;5135646;27;20100;-70
2021/09/30 11:35:17;;;;;;;7.43;5.50;;;;;;;15.24;100.00;101204.09;5136919;27;20062;-70
2021/09/30 11:37:46;;;;;;;7.70;5.13;;;;;;;15.27;100.00;101205.75;5136925;27;20391;-70
2021/09/30 11:40:20;;;;;;;9.55;5.47;;;;;;;15.49;100.00;101197.13;5137047;27;20088;-70
2021/09/30 11:42:53;;;;;;;7.18;4.90;;;;;;;15.54;100.00;101197.69;5136624;27;20046;-70
2021/09/30 11:45:24;;;;;;;9.63;5.18;;;;;;;15.53;100.00;101194.13;5136790;27;20047;-70
2021/09/30 11:48:03;;;;;;;9.55;5.82;;;;;;;15.67;100.00;101206.72;5136540;27;20084;-70
2021/09/30 11:50:32;;;;;;;9.48;6.55;;;;;;;15.77;100.00;101202.44;5136884;27;20040;-68
2021/09/30 11:53:05;;;;;;;9.63;6.13;;;;;;;15.80;100.00;101209.44;5136639;27;20051;-70
2021/09/30 11:55:40;;;;;;;8.32;5.47;;;;;;;15.76;100.00;101202.56;5136766;27;20361;-69
2021/09/30 11:58:12;;;;;;;6.88;5.28;;;;;;;15.74;100.00;101202.66;5136428;27;20039;-70
2021/09/30 12:00:46;;;;;;;12.02;6.22;;;;;;;15.83;100.00;101206.56;5136360;27;20078;-70
2021/09/30 12:03:21;;;;;;;10.25;5.72;;;;;;;15.62;100.00;101206.13;5136532;27;20488;-70
2021/09/30 12:05:55;;;;;;;8.45;6.20;;;;;;;15.60;100.00;101205.34;5136138;27;20070;-70
2021/09/30 12:08:24;;;;;;;7.82;6.40;;;;;;;15.58;100.00;101204.59;5136008;27;20142;-70
2021/09/30 12:10:59;;;;;;;8.63;5.82;;;;;;;15.53;100.00;101202.19;5134906;27;20056;-70
2021/09/30 12:13:28;;;;;;;8.48;6.32;;;;;;;15.46;100.00;101193.69;5134994;27;20354;-70
2021/09/30 12:16:04;;;;;;;8.75;6.38;;;;;;;15.59;100.00;101191.03;5134149;27;20066;-70
2021/09/30 12:18:34;;;;;;;10.98;7.60;;;;;;;15.60;100.00;101197.28;5134948;27;20100;-70
2021/09/30 12:21:04;;;;;;;10.38;6.88;;;;;;;15.68;100.00;101200.38;5134605;27;20043;-70
2021/09/30 12:23:33;;;;;;;9.73;6.50;;;;;;;15.63;100.00;101197.09;5135511;27;20050;-68
2021/09/30 12:26:02;;;;;;;9.13;6.50;;;;;;;15.69;100.00;101197.56;5135189;27;20531;-68
2021/09/30 12:28:31;;;;;;;9.70;6.97;;;;;;;15.71;100.00;101200.16;5135692;27;20035;-69
2021/09/30 12:31:06;;;;;;;8.98;7.40;;;;;;;15.67;100.00;101202.19;5135355;27;20472;-70
2021/09/30 12:33:35;;;;;;;10.63;7.57;;;;;;;15.65;100.00;101204.13;5135785;27;20035;-70
2021/09/30 12:36:07;;;;;;;10.10;8.27;;;;;;;15.78;100.00;101208.69;5135843;27;20043;-68
2021/09/30 12:38:36;;;;;;;10.43;8.13;;;;;;;15.77;100.00;101205.13;5135807;27;20071;-68
2021/09/30 12:41:06;;;;;;;10.82;7.75;;;;;;;15.78;100.00;101198.78;5135275;27;20052;-69
2021/09/30 12:43:38;;;;;;;11.43;8.35;;;;;;;15.82;100.00;101197.59;5135598;27;20050;-69
2021/09/30 12:46:10;;;;;;;9.82;7.15;;;;;;;15.83;100.00;101202.06;5135434;27;20125;-69
2021/09/30 12:48:40;;;;;;;10.70;7.80;;;;;;;15.69;100.00;101200.25;5135494;27;20051;-69
2021/09/30 12:51:11;;;;;;;9.68;7.63;;;;;;;15.76;100.00;101187.28;5135465;27;20088;-69
2021/09/30 12:53:44;;;;;;;9.43;7.88;;;;;;;15.73;100.00;101191.03;5135753;27;20136;-69
2021/09/30 12:56:15;;;;;;;10.23;7.78;;;;;;;15.63;100.00;101195.31;5135800;27;20047;-69
2021/09/30 12:58:47;;;;;;;10.18;7.70;;;;;;;15.67;100.00;101193.28;5135396;27;20130;-69
2021/09/30 13:01:26;;;;;;;10.95;8.77;;;;;;;15.65;100.00;101189.81;5135414;27;20045;-69
2021/09/30 13:04:12;;;;;;;10.90;8.05;;;;;;;15.67;100.00;101194.13;5135260;27;20035;-70
2021/09/30 13:06:53;;;;;;;13.20;9.27;;;;;;;15.66;100.00;101192.41;5135256;27;20142;-70
2021/09/30 13:09:23;;;;;;;11.27;8.75;;;;;;;15.73;100.00;101190.19;5135525;27;20049;-69
2021/09/30 13:11:55;;;;;;;11.88;9.23;;;;;;;15.82;100.00;101192.22;5135039;27;20046;-69
2021/09/30 13:14:28;;;;;;;16.10;9.53;;;;;;;15.86;100.00;101183.00;5135197;27;20122;-69
2021/09/30 13:17:12;;;;;;;11.98;9.90;;;;;;;15.85;100.00;101183.97;5134800;27;20433;-69
2021/09/30 13:19:45;;;;;;;11.10;8.30;;;;;;;15.83;100.00;101188.59;5135060;27;20047;-69
2021/09/30 13:22:15;;;;;;;14.25;9.20;;;;;;;15.93;100.00;101181.63;5134694;27;20046;-70
2021/09/30 13:24:46;;;;;;;12.88;9.77;;;;;;;15.85;100.00;101181.28;5134770;27;20043;-69
2021/09/30 13:27:16;;;;;;;13.68;9.60;;;;;;;15.94;100.00;101185.19;5134594;27;20054;-69
2021/09/30 13:29:46;;;;;;;12.10;9.55;;;;;;;16.05;100.00;101188.00;5134582;27;20051;-70
2021/09/30 13:32:16;;;;;;;11.20;8.80;;;;;;;16.14;100.00;101186.50;5134734;27;20100;-69
2021/09/30 13:34:46;;;;;;;11.98;9.45;;;;;;;16.05;100.00;101185.31;5134227;27;20502;-69
2021/09/30 13:37:14;;;;;;;12.43;9.48;;;;;;;16.03;100.00;101181.88;5134226;27;20403;-69
2021/09/30 13:39:43;;;;;;;12.77;9.05;;;;;;;16.11;100.00;101173.25;5134181;27;20442;-69
2021/09/30 13:42:11;;;;;;;12.43;9.68;;;;;;;16.28;100.00;101167.56;5133658;27;20035;-69
2021/09/30 13:44:41;;;;;;;13.38;9.98;;;;;;;16.36;100.00;101170.59;5133725;27;20060;-69
2021/09/30 13:47:09;;;;;;;13.77;9.60;;;;;;;16.37;100.00;101166.06;5133179;27;20537;-68
2021/09/30 13:49:38;;;;;;;11.98;9.45;;;;;;;16.59;100.00;101172.50;5133476;27;20039;-68
2021/09/30 13:52:09;;;;;;;11.63;9.07;;;;;;;16.53;100.00;101178.34;5132765;27;20053;-69
2021/09/30 13:54:38;;;;;;;11.88;9.43;;;;;;;16.52;100.00;101171.25;5133468;27;20041;-69
2021/09/30 13:57:07;;;;;;;13.02;10.05;;;;;;;16.65;100.00;101167.69;5134059;27;20380;-69